createdAt,value
2023-03-05T00:00:00.575Z,76.70
2023-03-05T00:05:00.341Z,76.94
2023-03-05T00:10:02.577Z,77.37
2023-03-05T00:15:00.326Z,77.15
2023-03-05T00:20:02.349Z,77.14
2023-03-05T00:25:00.596Z,78.16
2023-03-05T00:30:00.355Z,78.25
2023-03-05T00:35:00.311Z,78.21
2023-03-05T00:40:00.467Z,77.54
2023-03-05T00:45:00.338Z,78.39
2023-03-05T00:50:00.559Z,77.36
2023-03-05T00:55:00.361Z,77.61
2023-03-05T01:00:00.553Z,78.22
2023-03-05T01:05:00.431Z,77.98
2023-03-05T01:10:00.326Z,78.55
2023-03-05T01:15:00.350Z,78.78
2023-03-05T01:20:00.344Z,78.48
2023-03-05T01:25:00.302Z,78.13
2023-03-05T01:30:00.342Z,79.54
2023-03-05T01:35:01.083Z,77.36
2023-03-05T01:40:00.316Z,78.13
2023-03-05T01:45:11.798Z,79.16
2023-03-05T01:50:00.575Z,78.54
2023-03-05T01:55:03.116Z,78.38
2023-03-05T02:00:08.872Z,78.94
2023-03-05T02:05:04.083Z,78.75
2023-03-05T02:10:00.311Z,77.92
2023-03-05T02:15:00.329Z,78.71
2023-03-05T02:20:09.183Z,79.01
2023-03-05T02:25:00.338Z,78.71
2023-03-05T02:30:01.629Z,79.52
2023-03-05T02:35:00.320Z,79.43
2023-03-05T02:40:00.382Z,78.86
2023-03-05T02:45:01.385Z,79.09
2023-03-05T02:50:00.340Z,79.04
2023-03-05T02:55:00.457Z,79.09
2023-03-05T03:00:00.686Z,78.77
2023-03-05T03:05:00.354Z,79.03
2023-03-05T03:10:00.301Z,79.33
2023-03-05T03:15:00.317Z,79.03
2023-03-05T03:20:00.523Z,79.12
2023-03-05T03:25:00.382Z,79.64
2023-03-05T03:30:00.316Z,79.71
2023-03-05T03:35:00.529Z,79.82
2023-03-05T03:40:00.442Z,79.85
2023-03-05T03:45:00.524Z,80.25
2023-03-05T03:50:00.389Z,79.05
2023-03-05T03:55:00.311Z,79.16
2023-03-05T04:00:00.923Z,79.04
2023-03-05T04:05:00.389Z,78.97
2023-03-05T04:10:00.301Z,80.12
2023-03-05T04:15:00.328Z,80.41
2023-03-05T04:20:00.527Z,80.38
2023-03-05T04:25:00.316Z,80.81
2023-03-05T04:30:00.490Z,80.52
2023-03-05T04:35:00.307Z,81.28
2023-03-05T04:40:00.325Z,81.15
2023-03-05T04:45:00.382Z,80.71
2023-03-05T04:50:00.296Z,81.51
2023-03-05T04:55:00.358Z,82.62
2023-03-05T05:00:00.960Z,82.02
2023-03-05T05:05:00.281Z,81.65
2023-03-05T05:10:00.322Z,82.00
2023-03-05T05:15:00.759Z,82.29
2023-03-05T05:20:01.549Z,82.04
2023-03-05T05:25:00.885Z,81.87
2023-03-05T05:30:00.416Z,82.39
2023-03-05T05:35:00.368Z,82.94
2023-03-05T05:40:00.307Z,83.49
2023-03-05T05:45:00.551Z,83.90
2023-03-05T05:50:00.369Z,84.02
2023-03-05T05:55:00.439Z,83.40
2023-03-05T06:00:01.320Z,82.76
2023-03-05T06:05:00.284Z,83.30
2023-03-05T06:10:00.830Z,83.42
2023-03-05T06:15:00.307Z,83.49
2023-03-05T06:20:00.319Z,83.18
2023-03-05T06:25:00.351Z,84.34
2023-03-05T06:30:00.679Z,83.28
2023-03-05T06:35:00.312Z,83.68
2023-03-05T06:40:00.317Z,84.79
2023-03-05T06:45:00.317Z,84.04
2023-03-05T06:50:00.386Z,83.95
2023-03-05T06:55:00.315Z,83.06
2023-03-05T07:00:00.527Z,84.44
2023-03-05T07:05:00.308Z,83.81
2023-03-05T07:10:00.464Z,83.60
2023-03-05T07:15:00.693Z,83.40
2023-03-05T07:20:00.425Z,83.79
2023-03-05T07:25:00.306Z,84.50
2023-03-05T07:30:00.474Z,83.87
2023-03-05T07:35:00.399Z,83.33
2023-03-05T07:40:00.428Z,82.77
2023-03-05T07:45:00.317Z,82.81
2023-03-05T07:50:00.547Z,82.69
2023-03-05T07:55:00.310Z,81.15
2023-03-05T08:00:01.720Z,77.54
2023-03-05T08:05:00.332Z,76.03
2023-03-05T08:10:00.317Z,77.16
2023-03-05T08:15:00.303Z,78.57
2023-03-05T08:20:00.329Z,79.24
2023-03-05T08:25:00.597Z,79.74
2023-03-05T08:30:00.746Z,79.94
2023-03-05T08:35:00.338Z,79.88
2023-03-05T08:40:00.454Z,80.68
2023-03-05T08:45:00.332Z,80.73
2023-03-05T08:50:00.315Z,80.25
2023-03-05T08:55:00.441Z,80.82
2023-03-05T09:00:00.528Z,81.79
2023-03-05T09:05:00.348Z,82.27
2023-03-05T09:10:00.387Z,82.22
2023-03-05T09:15:00.356Z,82.62
2023-03-05T09:20:00.962Z,82.46
2023-03-05T09:25:00.313Z,82.52
2023-03-05T09:30:00.344Z,82.61
2023-03-05T09:35:00.364Z,80.86
2023-03-05T09:40:00.332Z,80.59
2023-03-05T09:45:20.197Z,78.88
2023-03-05T09:50:12.247Z,78.92
2023-03-05T09:55:01.430Z,77.71
2023-03-05T10:00:04.532Z,76.93
2023-03-05T10:05:11.280Z,74.98
2023-03-05T10:10:02.454Z,75.68
2023-03-05T10:15:00.333Z,72.19
2023-03-05T10:20:14.190Z,70.19
2023-03-05T10:25:13.536Z,66.82
2023-03-05T10:30:11.308Z,66.93
2023-03-05T10:35:10.225Z,69.37
2023-03-05T10:40:20.206Z,70.10
2023-03-05T10:45:14.238Z,71.06
2023-03-05T10:50:00.394Z,73.75
2023-03-05T10:55:00.428Z,73.97
2023-03-05T11:00:20.229Z,71.59
2023-03-05T11:05:00.292Z,72.42
2023-03-05T11:10:00.315Z,70.48
2023-03-05T11:15:11.256Z,68.19
2023-03-05T11:20:20.195Z,67.29
2023-03-05T11:25:12.435Z,66.69
2023-03-05T11:30:00.693Z,65.50
2023-03-05T11:35:00.325Z,64.94
2023-03-05T11:40:15.107Z,64.70
2023-03-05T11:45:00.330Z,64.35
2023-03-05T11:50:04.552Z,63.85
2023-03-05T11:55:15.214Z,63.68
2023-03-05T12:00:04.558Z,62.51
2023-03-05T12:05:00.302Z,63.70
2023-03-05T12:10:01.126Z,64.15
2023-03-05T12:15:11.347Z,62.98
2023-03-05T12:20:05.978Z,63.10
2023-03-05T12:25:15.980Z,60.74
2023-03-05T12:30:00.926Z,62.98
2023-03-05T12:35:02.571Z,61.20
2023-03-05T12:40:20.199Z,59.65
2023-03-05T12:45:10.239Z,59.85
2023-03-05T12:50:00.514Z,59.72
2023-03-05T12:55:14.096Z,58.45
2023-03-05T13:00:02.506Z,59.92
2023-03-05T13:05:06.552Z,60.06
2023-03-05T13:10:00.403Z,62.64
2023-03-05T13:15:03.864Z,60.46
2023-03-05T13:20:20.197Z,62.63
2023-03-05T13:25:09.614Z,61.23
2023-03-05T13:30:00.319Z,60.91
2023-03-05T13:35:00.506Z,60.04
2023-03-05T13:40:04.456Z,60.57
2023-03-05T13:45:06.294Z,60.12
2023-03-05T13:50:03.917Z,59.81
2023-03-05T13:55:03.365Z,59.07
2023-03-05T14:00:00.645Z,58.64
2023-03-05T14:05:00.419Z,59.41
2023-03-05T14:10:00.824Z,59.42
2023-03-05T14:15:01.817Z,60.60
2023-03-05T14:20:10.228Z,60.96
2023-03-05T14:25:00.801Z,60.82
2023-03-05T14:30:01.185Z,61.53
2023-03-05T14:35:03.993Z,61.45
2023-03-05T14:40:04.740Z,60.97
2023-03-05T14:45:09.541Z,61.12
2023-03-05T14:50:00.336Z,60.94
2023-03-05T14:55:00.724Z,60.96
2023-03-05T15:00:01.469Z,60.68
2023-03-05T15:05:00.325Z,61.50
2023-03-05T15:10:00.351Z,61.26
2023-03-05T15:15:00.359Z,61.89
2023-03-05T15:20:00.616Z,62.57
2023-03-05T15:25:00.377Z,63.23
2023-03-05T15:30:00.350Z,63.85
2023-03-05T15:35:00.318Z,63.84
2023-03-05T15:40:00.334Z,64.27
2023-03-05T15:45:00.287Z,64.44
2023-03-05T15:50:00.644Z,64.77
2023-03-05T15:55:00.804Z,64.93
2023-03-05T16:00:00.853Z,65.21
2023-03-05T16:05:00.333Z,65.17
2023-03-05T16:10:00.407Z,66.33
2023-03-05T16:15:00.686Z,66.24
2023-03-05T16:20:00.347Z,66.62
2023-03-05T16:25:00.316Z,66.06
2023-03-05T16:30:00.652Z,66.38
2023-03-05T16:35:00.293Z,66.82
2023-03-05T16:40:00.347Z,68.82
2023-03-05T16:45:00.628Z,69.09
2023-03-05T16:50:00.333Z,68.74
2023-03-05T16:55:00.464Z,69.06
2023-03-05T17:00:00.857Z,70.08
2023-03-05T17:05:00.337Z,70.47
2023-03-05T17:10:00.319Z,70.51
2023-03-05T17:15:00.319Z,70.59
2023-03-05T17:20:00.352Z,70.68
2023-03-05T17:25:00.347Z,71.36
2023-03-05T17:30:00.413Z,71.87
2023-03-05T17:35:00.360Z,72.31
2023-03-05T17:40:00.341Z,71.97
2023-03-05T17:45:00.329Z,73.02
2023-03-05T17:50:00.673Z,73.08
2023-03-05T17:55:00.356Z,73.00
2023-03-05T18:00:00.661Z,73.18
2023-03-05T18:05:01.028Z,73.20
2023-03-05T18:10:00.379Z,72.44
2023-03-05T18:15:00.493Z,72.31
2023-03-05T18:20:03.567Z,72.09
2023-03-05T18:25:00.582Z,72.07
2023-03-05T18:30:00.301Z,71.69
2023-03-05T18:35:00.298Z,71.50
2023-03-05T18:40:00.324Z,71.60
2023-03-05T18:45:00.280Z,71.67
2023-03-05T18:50:00.341Z,71.85
2023-03-05T18:55:00.293Z,71.96
2023-03-05T19:00:00.557Z,71.45
2023-03-05T19:05:00.324Z,71.84
2023-03-05T19:10:00.700Z,71.88
2023-03-05T19:15:01.510Z,71.91
2023-03-05T19:20:00.331Z,72.19
2023-03-05T19:25:00.620Z,72.57
2023-03-05T19:30:00.554Z,72.80
2023-03-05T19:35:00.834Z,72.08
2023-03-05T19:40:00.301Z,72.33
2023-03-05T19:45:00.370Z,72.24
2023-03-05T19:50:00.423Z,73.42
2023-03-05T19:55:00.273Z,73.14
2023-03-05T20:00:00.483Z,73.09
2023-03-05T20:05:00.361Z,73.54
2023-03-05T20:10:00.313Z,73.83
2023-03-05T20:15:00.293Z,73.66
2023-03-05T20:20:00.344Z,74.45
2023-03-05T20:25:00.295Z,74.15
2023-03-05T20:30:00.292Z,74.52
2023-03-05T20:35:00.465Z,74.54
2023-03-05T20:40:00.299Z,75.72
2023-03-05T20:45:00.332Z,76.28
2023-03-05T20:50:00.364Z,76.61
2023-03-05T20:55:00.350Z,76.69
2023-03-05T21:00:00.924Z,77.03
2023-03-05T21:05:00.434Z,77.68
2023-03-05T21:10:00.538Z,77.07
2023-03-05T21:15:00.324Z,77.62
2023-03-05T21:20:00.763Z,77.94
2023-03-05T21:25:02.957Z,77.89
2023-03-05T21:30:00.328Z,76.95
2023-03-05T21:35:00.517Z,77.04
2023-03-05T21:40:00.320Z,77.98
2023-03-05T21:45:00.304Z,77.75
2023-03-05T21:50:00.352Z,77.68
2023-03-05T21:55:00.317Z,78.29
2023-03-05T22:00:00.624Z,77.77
2023-03-05T22:05:00.276Z,78.44
2023-03-05T22:10:00.316Z,79.67
2023-03-05T22:15:00.356Z,78.71
2023-03-05T22:20:00.343Z,79.39
2023-03-05T22:25:00.310Z,80.09
2023-03-05T22:30:00.277Z,80.15
2023-03-05T22:35:00.464Z,79.29
2023-03-05T22:40:00.324Z,79.92
2023-03-05T22:45:00.345Z,80.61
2023-03-05T22:50:00.548Z,80.38
2023-03-05T22:55:01.142Z,80.51
2023-03-05T23:00:00.583Z,80.75
2023-03-05T23:05:00.282Z,78.95
2023-03-05T23:10:04.049Z,80.43
2023-03-05T23:15:02.781Z,80.40
2023-03-05T23:20:00.661Z,79.77
2023-03-05T23:25:00.321Z,80.89
2023-03-05T23:30:02.930Z,80.29
2023-03-05T23:35:00.427Z,81.43
2023-03-05T23:40:01.912Z,82.10
2023-03-05T23:45:00.298Z,82.28
2023-03-05T23:50:02.737Z,81.97
2023-03-05T23:55:00.394Z,83.52
